sensor_id;sensor_type;location;lat;lon;timestamp;P1;durP1;ratioP1;P2;durP2;ratioP2
10715;SDS011;5409;42.620;23.316;2022-10-31T00:00:43;5.50;;;2.75;;
10715;SDS011;5409;42.620;23.316;2022-10-31T00:03:09;4.90;;;2.55;;
10715;SDS011;5409;42.620;23.316;2022-10-31T00:05:40;5.38;;;2.00;;
10715;SDS011;5409;42.620;23.316;2022-10-31T00:08:07;3.55;;;1.95;;
10715;SDS011;5409;42.620;23.316;2022-10-31T00:10:36;5.75;;;2.30;;
10715;SDS011;5409;42.620;23.316;2022-10-31T00:13:03;4.43;;;1.90;;
10715;SDS011;5409;42.620;23.316;2022-10-31T00:15:31;5.20;;;2.22;;
10715;SDS011;5409;42.620;23.316;2022-10-31T00:17:59;3.83;;;2.30;;
10715;SDS011;5409;42.620;23.316;2022-10-31T00:20:25;5.85;;;2.20;;
10715;SDS011;5409;42.620;23.316;2022-10-31T00:22:52;4.90;;;1.65;;
10715;SDS011;5409;42.620;23.316;2022-10-31T00:25:19;3.25;;;1.90;;
10715;SDS011;5409;42.620;23.316;2022-10-31T00:27:48;6.22;;;1.90;;
10715;SDS011;5409;42.620;23.316;2022-10-31T00:30:14;5.07;;;1.83;;
10715;SDS011;5409;42.620;23.316;2022-10-31T00:32:41;4.05;;;1.80;;
10715;SDS011;5409;42.620;23.316;2022-10-31T00:35:08;4.00;;;2.20;;
10715;SDS011;5409;42.620;23.316;2022-10-31T00:37:34;5.53;;;2.50;;
10715;SDS011;5409;42.620;23.316;2022-10-31T00:40:01;3.38;;;2.08;;
10715;SDS011;5409;42.620;23.316;2022-10-31T00:42:28;5.18;;;2.10;;
10715;SDS011;5409;42.620;23.316;2022-10-31T00:44:56;3.40;;;1.90;;
10715;SDS011;5409;42.620;23.316;2022-10-31T00:47:23;5.45;;;2.20;;
10715;SDS011;5409;42.620;23.316;2022-10-31T00:49:49;3.03;;;1.80;;
10715;SDS011;5409;42.620;23.316;2022-10-31T00:52:16;4.22;;;2.03;;
10715;SDS011;5409;42.620;23.316;2022-10-31T00:54:43;3.63;;;2.30;;
10715;SDS011;5409;42.620;23.316;2022-10-31T00:57:09;6.43;;;2.28;;
10715;SDS011;5409;42.620;23.316;2022-10-31T00:59:36;4.97;;;2.25;;
10715;SDS011;5409;42.620;23.316;2022-10-31T01:02:04;4.35;;;2.13;;
10715;SDS011;5409;42.620;23.316;2022-10-31T01:04:31;3.10;;;2.00;;
10715;SDS011;5409;42.620;23.316;2022-10-31T01:06:57;4.03;;;1.90;;
10715;SDS011;5409;42.620;23.316;2022-10-31T01:09:24;4.50;;;2.10;;
10715;SDS011;5409;42.620;23.316;2022-10-31T01:11:51;5.18;;;1.92;;
10715;SDS011;5409;42.620;23.316;2022-10-31T01:14:18;4.82;;;2.50;;
10715;SDS011;5409;42.620;23.316;2022-10-31T01:16:44;6.95;;;2.40;;
10715;SDS011;5409;42.620;23.316;2022-10-31T01:19:12;3.40;;;1.95;;
10715;SDS011;5409;42.620;23.316;2022-10-31T01:21:39;3.92;;;1.90;;
10715;SDS011;5409;42.620;23.316;2022-10-31T01:24:06;3.40;;;2.00;;
10715;SDS011;5409;42.620;23.316;2022-10-31T01:26:34;6.28;;;2.25;;
10715;SDS011;5409;42.620;23.316;2022-10-31T01:29:01;3.15;;;1.85;;
10715;SDS011;5409;42.620;23.316;2022-10-31T01:31:29;2.80;;;1.70;;
10715;SDS011;5409;42.620;23.316;2022-10-31T01:33:57;3.25;;;1.80;;
10715;SDS011;5409;42.620;23.316;2022-10-31T01:36:27;5.18;;;2.58;;
10715;SDS011;5409;42.620;23.316;2022-10-31T01:38:55;5.28;;;2.25;;
10715;SDS011;5409;42.620;23.316;2022-10-31T01:41:24;4.53;;;2.00;;
10715;SDS011;5409;42.620;23.316;2022-10-31T01:43:54;4.68;;;2.53;;
10715;SDS011;5409;42.620;23.316;2022-10-31T01:46:24;5.90;;;1.85;;
10715;SDS011;5409;42.620;23.316;2022-10-31T01:48:54;5.95;;;2.10;;
10715;SDS011;5409;42.620;23.316;2022-10-31T01:51:23;7.13;;;2.40;;
10715;SDS011;5409;42.620;23.316;2022-10-31T01:53:55;5.55;;;2.17;;
10715;SDS011;5409;42.620;23.316;2022-10-31T01:56:26;6.20;;;2.30;;
10715;SDS011;5409;42.620;23.316;2022-10-31T01:58:53;5.15;;;2.55;;
10715;SDS011;5409;42.620;23.316;2022-10-31T02:01:23;5.43;;;2.63;;
10715;SDS011;5409;42.620;23.316;2022-10-31T02:03:50;8.02;;;2.50;;
10715;SDS011;5409;42.620;23.316;2022-10-31T02:06:20;4.03;;;2.20;;
10715;SDS011;5409;42.620;23.316;2022-10-31T02:08:56;5.55;;;2.60;;
10715;SDS011;5409;42.620;23.316;2022-10-31T02:11:25;7.90;;;2.58;;
10715;SDS011;5409;42.620;23.316;2022-10-31T02:13:54;4.32;;;2.50;;
10715;SDS011;5409;42.620;23.316;2022-10-31T02:16:21;4.38;;;2.60;;
10715;SDS011;5409;42.620;23.316;2022-10-31T02:18:48;3.42;;;2.42;;
10715;SDS011;5409;42.620;23.316;2022-10-31T02:21:15;4.70;;;2.58;;
10715;SDS011;5409;42.620;23.316;2022-10-31T02:26:51;4.55;;;2.60;;
10715;SDS011;5409;42.620;23.316;2022-10-31T02:32:23;5.05;;;2.70;;
10715;SDS011;5409;42.620;23.316;2022-10-31T02:34:57;3.10;;;2.30;;
10715;SDS011;5409;42.620;23.316;2022-10-31T02:37:32;5.95;;;2.53;;
10715;SDS011;5409;42.620;23.316;2022-10-31T02:40:05;6.00;;;2.40;;
10715;SDS011;5409;42.620;23.316;2022-10-31T02:42:43;5.60;;;2.75;;
10715;SDS011;5409;42.620;23.316;2022-10-31T02:45:18;3.45;;;2.33;;
10715;SDS011;5409;42.620;23.316;2022-10-31T02:47:52;4.13;;;2.60;;
10715;SDS011;5409;42.620;23.316;2022-10-31T02:50:23;5.35;;;2.90;;
10715;SDS011;5409;42.620;23.316;2022-10-31T02:52:54;4.38;;;2.80;;
10715;SDS011;5409;42.620;23.316;2022-10-31T02:55:42;3.35;;;2.58;;
10715;SDS011;5409;42.620;23.316;2022-10-31T02:58:14;4.95;;;2.85;;
10715;SDS011;5409;42.620;23.316;2022-10-31T03:00:45;9.68;;;3.05;;
10715;SDS011;5409;42.620;23.316;2022-10-31T03:03:26;4.93;;;2.83;;
10715;SDS011;5409;42.620;23.316;2022-10-31T03:05:59;4.15;;;2.90;;
10715;SDS011;5409;42.620;23.316;2022-10-31T03:08:30;6.55;;;2.80;;
10715;SDS011;5409;42.620;23.316;2022-10-31T03:11:02;3.78;;;2.53;;
10715;SDS011;5409;42.620;23.316;2022-10-31T03:13:32;5.32;;;2.60;;
10715;SDS011;5409;42.620;23.316;2022-10-31T03:16:07;6.60;;;3.28;;
10715;SDS011;5409;42.620;23.316;2022-10-31T03:18:40;5.93;;;2.90;;
10715;SDS011;5409;42.620;23.316;2022-10-31T03:21:13;8.98;;;2.60;;
10715;SDS011;5409;42.620;23.316;2022-10-31T03:23:41;5.60;;;2.92;;
10715;SDS011;5409;42.620;23.316;2022-10-31T03:26:11;7.05;;;2.70;;
10715;SDS011;5409;42.620;23.316;2022-10-31T03:28:43;6.50;;;2.45;;
10715;SDS011;5409;42.620;23.316;2022-10-31T03:31:13;5.80;;;2.78;;
10715;SDS011;5409;42.620;23.316;2022-10-31T03:33:46;5.53;;;2.42;;
10715;SDS011;5409;42.620;23.316;2022-10-31T03:36:15;3.50;;;2.35;;
10715;SDS011;5409;42.620;23.316;2022-10-31T03:38:43;4.15;;;2.80;;
10715;SDS011;5409;42.620;23.316;2022-10-31T03:41:13;5.95;;;2.33;;
10715;SDS011;5409;42.620;23.316;2022-10-31T03:43:46;3.53;;;2.00;;
10715;SDS011;5409;42.620;23.316;2022-10-31T03:46:19;3.63;;;2.60;;
10715;SDS011;5409;42.620;23.316;2022-10-31T03:48:47;5.63;;;2.20;;
10715;SDS011;5409;42.620;23.316;2022-10-31T03:51:14;6.63;;;2.42;;
10715;SDS011;5409;42.620;23.316;2022-10-31T03:53:49;4.65;;;2.40;;
10715;SDS011;5409;42.620;23.316;2022-10-31T03:56:19;4.15;;;2.42;;
10715;SDS011;5409;42.620;23.316;2022-10-31T03:58:55;3.38;;;2.50;;
10715;SDS011;5409;42.620;23.316;2022-10-31T04:01:26;3.58;;;2.65;;
10715;SDS011;5409;42.620;23.316;2022-10-31T04:03:58;5.00;;;2.25;;
10715;SDS011;5409;42.620;23.316;2022-10-31T04:06:25;6.07;;;2.42;;
10715;SDS011;5409;42.620;23.316;2022-10-31T04:08:53;6.28;;;3.22;;
10715;SDS011;5409;42.620;23.316;2022-10-31T04:11:27;6.68;;;2.80;;
10715;SDS011;5409;42.620;23.316;2022-10-31T04:13:56;6.70;;;3.20;;
10715;SDS011;5409;42.620;23.316;2022-10-31T04:16:25;6.90;;;2.85;;
10715;SDS011;5409;42.620;23.316;2022-10-31T04:18:53;4.32;;;2.70;;
10715;SDS011;5409;42.620;23.316;2022-10-31T04:21:25;4.00;;;2.63;;
10715;SDS011;5409;42.620;23.316;2022-10-31T04:23:53;5.97;;;2.60;;
10715;SDS011;5409;42.620;23.316;2022-10-31T04:26:20;4.70;;;2.60;;
10715;SDS011;5409;42.620;23.316;2022-10-31T04:28:46;4.53;;;2.53;;
10715;SDS011;5409;42.620;23.316;2022-10-31T04:31:13;7.63;;;2.95;;
10715;SDS011;5409;42.620;23.316;2022-10-31T04:33:40;3.28;;;2.65;;
10715;SDS011;5409;42.620;23.316;2022-10-31T04:36:07;4.50;;;2.47;;
10715;SDS011;5409;42.620;23.316;2022-10-31T04:38:35;5.55;;;2.75;;
10715;SDS011;5409;42.620;23.316;2022-10-31T04:41:02;3.92;;;2.30;;
10715;SDS011;5409;42.620;23.316;2022-10-31T04:43:29;4.18;;;2.10;;
10715;SDS011;5409;42.620;23.316;2022-10-31T04:45:56;3.90;;;2.58;;
10715;SDS011;5409;42.620;23.316;2022-10-31T04:48:22;4.75;;;2.63;;
10715;SDS011;5409;42.620;23.316;2022-10-31T04:50:49;4.75;;;2.38;;
10715;SDS011;5409;42.620;23.316;2022-10-31T04:53:16;8.43;;;2.80;;
10715;SDS011;5409;42.620;23.316;2022-10-31T04:55:44;6.40;;;2.35;;
10715;SDS011;5409;42.620;23.316;2022-10-31T04:58:10;3.33;;;2.70;;
10715;SDS011;5409;42.620;23.316;2022-10-31T05:00:37;9.10;;;3.40;;
10715;SDS011;5409;42.620;23.316;2022-10-31T05:03:04;5.75;;;2.90;;
10715;SDS011;5409;42.620;23.316;2022-10-31T05:05:31;5.03;;;3.22;;
10715;SDS011;5409;42.620;23.316;2022-10-31T05:07:58;6.05;;;2.40;;
10715;SDS011;5409;42.620;23.316;2022-10-31T05:10:25;4.13;;;2.92;;
10715;SDS011;5409;42.620;23.316;2022-10-31T05:12:55;4.25;;;2.65;;
10715;SDS011;5409;42.620;23.316;2022-10-31T05:15:23;4.50;;;3.03;;
10715;SDS011;5409;42.620;23.316;2022-10-31T05:17:51;10.15;;;3.05;;
10715;SDS011;5409;42.620;23.316;2022-10-31T05:20:19;4.75;;;3.13;;
10715;SDS011;5409;42.620;23.316;2022-10-31T05:22:47;7.00;;;3.40;;
10715;SDS011;5409;42.620;23.316;2022-10-31T05:25:15;6.53;;;3.75;;
10715;SDS011;5409;42.620;23.316;2022-10-31T05:27:43;4.43;;;2.88;;
10715;SDS011;5409;42.620;23.316;2022-10-31T05:30:13;7.70;;;2.85;;
10715;SDS011;5409;42.620;23.316;2022-10-31T05:32:42;7.65;;;3.00;;
10715;SDS011;5409;42.620;23.316;2022-10-31T05:35:11;5.32;;;2.60;;
10715;SDS011;5409;42.620;23.316;2022-10-31T05:37:39;8.10;;;3.03;;
10715;SDS011;5409;42.620;23.316;2022-10-31T05:40:07;6.75;;;3.13;;
10715;SDS011;5409;42.620;23.316;2022-10-31T05:42:35;5.65;;;3.15;;
10715;SDS011;5409;42.620;23.316;2022-10-31T05:45:05;8.52;;;3.05;;
10715;SDS011;5409;42.620;23.316;2022-10-31T05:47:34;7.22;;;3.42;;
10715;SDS011;5409;42.620;23.316;2022-10-31T05:50:00;6.80;;;3.17;;
10715;SDS011;5409;42.620;23.316;2022-10-31T05:52:27;6.20;;;3.05;;
10715;SDS011;5409;42.620;23.316;2022-10-31T05:54:54;8.50;;;3.40;;
10715;SDS011;5409;42.620;23.316;2022-10-31T05:57:20;6.25;;;3.90;;
10715;SDS011;5409;42.620;23.316;2022-10-31T05:59:47;8.02;;;3.85;;
10715;SDS011;5409;42.620;23.316;2022-10-31T06:02:16;8.73;;;4.40;;
10715;SDS011;5409;42.620;23.316;2022-10-31T06:04:44;7.97;;;3.92;;
10715;SDS011;5409;42.620;23.316;2022-10-31T06:07:10;5.97;;;4.70;;
10715;SDS011;5409;42.620;23.316;2022-10-31T06:09:37;7.70;;;4.80;;
10715;SDS011;5409;42.620;23.316;2022-10-31T06:12:04;6.60;;;4.40;;
10715;SDS011;5409;42.620;23.316;2022-10-31T06:14:31;7.03;;;5.13;;
10715;SDS011;5409;42.620;23.316;2022-10-31T06:16:58;7.18;;;4.82;;
10715;SDS011;5409;42.620;23.316;2022-10-31T06:19:24;6.60;;;4.97;;
10715;SDS011;5409;42.620;23.316;2022-10-31T06:21:52;8.95;;;5.25;;
10715;SDS011;5409;42.620;23.316;2022-10-31T06:24:19;13.32;;;6.53;;
10715;SDS011;5409;42.620;23.316;2022-10-31T06:26:46;11.20;;;7.53;;
10715;SDS011;5409;42.620;23.316;2022-10-31T06:29:12;11.25;;;7.25;;
10715;SDS011;5409;42.620;23.316;2022-10-31T06:31:39;11.00;;;7.32;;
10715;SDS011;5409;42.620;23.316;2022-10-31T06:34:06;13.02;;;6.97;;
10715;SDS011;5409;42.620;23.316;2022-10-31T06:36:32;15.80;;;8.00;;
10715;SDS011;5409;42.620;23.316;2022-10-31T06:39:01;14.60;;;8.38;;
10715;SDS011;5409;42.620;23.316;2022-10-31T06:41:27;11.60;;;8.35;;
10715;SDS011;5409;42.620;23.316;2022-10-31T06:43:54;16.58;;;8.55;;
10715;SDS011;5409;42.620;23.316;2022-10-31T06:46:21;13.20;;;8.25;;
10715;SDS011;5409;42.620;23.316;2022-10-31T06:48:47;11.63;;;8.52;;
10715;SDS011;5409;42.620;23.316;2022-10-31T06:51:14;12.05;;;9.13;;
10715;SDS011;5409;42.620;23.316;2022-10-31T06:53:41;12.15;;;8.57;;
10715;SDS011;5409;42.620;23.316;2022-10-31T06:56:09;14.82;;;8.65;;
10715;SDS011;5409;42.620;23.316;2022-10-31T06:58:35;15.05;;;11.02;;
10715;SDS011;5409;42.620;23.316;2022-10-31T07:01:02;14.63;;;11.25;;
10715;SDS011;5409;42.620;23.316;2022-10-31T07:03:29;17.35;;;13.57;;
10715;SDS011;5409;42.620;23.316;2022-10-31T07:05:55;18.73;;;12.25;;
10715;SDS011;5409;42.620;23.316;2022-10-31T07:08:23;14.82;;;11.23;;
10715;SDS011;5409;42.620;23.316;2022-10-31T07:10:54;15.95;;;10.27;;
10715;SDS011;5409;42.620;23.316;2022-10-31T07:13:23;18.63;;;11.70;;
10715;SDS011;5409;42.620;23.316;2022-10-31T07:15:51;17.38;;;9.88;;
10715;SDS011;5409;42.620;23.316;2022-10-31T07:18:19;19.63;;;10.35;;
10715;SDS011;5409;42.620;23.316;2022-10-31T07:20:46;15.55;;;9.85;;
10715;SDS011;5409;42.620;23.316;2022-10-31T07:23:13;16.58;;;9.65;;
10715;SDS011;5409;42.620;23.316;2022-10-31T07:25:40;15.70;;;8.68;;
10715;SDS011;5409;42.620;23.316;2022-10-31T07:28:07;18.60;;;9.68;;
10715;SDS011;5409;42.620;23.316;2022-10-31T07:30:35;15.60;;;10.32;;
10715;SDS011;5409;42.620;23.316;2022-10-31T07:33:02;15.77;;;9.88;;
10715;SDS011;5409;42.620;23.316;2022-10-31T07:35:30;16.75;;;10.05;;
10715;SDS011;5409;42.620;23.316;2022-10-31T07:37:57;18.48;;;9.75;;
10715;SDS011;5409;42.620;23.316;2022-10-31T07:40:32;14.75;;;10.18;;
10715;SDS011;5409;42.620;23.316;2022-10-31T07:42:58;21.88;;;10.70;;
10715;SDS011;5409;42.620;23.316;2022-10-31T07:45:25;15.95;;;10.77;;
10715;SDS011;5409;42.620;23.316;2022-10-31T07:47:53;21.17;;;11.20;;
10715;SDS011;5409;42.620;23.316;2022-10-31T07:50:20;16.13;;;10.38;;
10715;SDS011;5409;42.620;23.316;2022-10-31T07:52:57;16.90;;;10.35;;
10715;SDS011;5409;42.620;23.316;2022-10-31T07:55:24;15.98;;;10.07;;
10715;SDS011;5409;42.620;23.316;2022-10-31T07:57:55;16.45;;;10.20;;
10715;SDS011;5409;42.620;23.316;2022-10-31T08:00:22;15.07;;;10.43;;
10715;SDS011;5409;42.620;23.316;2022-10-31T08:02:57;17.65;;;9.55;;
10715;SDS011;5409;42.620;23.316;2022-10-31T08:05:24;17.05;;;9.73;;
10715;SDS011;5409;42.620;23.316;2022-10-31T08:07:50;18.67;;;10.15;;
10715;SDS011;5409;42.620;23.316;2022-10-31T08:10:17;17.60;;;9.88;;
10715;SDS011;5409;42.620;23.316;2022-10-31T08:12:44;16.92;;;9.80;;
10715;SDS011;5409;42.620;23.316;2022-10-31T08:15:10;18.38;;;10.45;;
10715;SDS011;5409;42.620;23.316;2022-10-31T08:17:37;16.65;;;10.70;;
10715;SDS011;5409;42.620;23.316;2022-10-31T08:20:06;14.30;;;9.75;;
10715;SDS011;5409;42.620;23.316;2022-10-31T08:22:34;17.13;;;10.68;;
10715;SDS011;5409;42.620;23.316;2022-10-31T08:25:01;13.52;;;9.50;;
10715;SDS011;5409;42.620;23.316;2022-10-31T08:27:27;21.17;;;10.43;;
10715;SDS011;5409;42.620;23.316;2022-10-31T08:29:54;22.10;;;11.95;;
10715;SDS011;5409;42.620;23.316;2022-10-31T08:32:21;18.50;;;10.20;;
10715;SDS011;5409;42.620;23.316;2022-10-31T08:34:47;21.05;;;11.18;;
10715;SDS011;5409;42.620;23.316;2022-10-31T08:37:15;18.63;;;11.30;;
10715;SDS011;5409;42.620;23.316;2022-10-31T08:39:45;17.15;;;10.68;;
10715;SDS011;5409;42.620;23.316;2022-10-31T08:42:11;18.10;;;10.93;;
10715;SDS011;5409;42.620;23.316;2022-10-31T08:44:38;17.52;;;10.02;;
10715;SDS011;5409;42.620;23.316;2022-10-31T08:47:05;18.77;;;10.25;;
10715;SDS011;5409;42.620;23.316;2022-10-31T08:49:32;17.60;;;10.77;;
10715;SDS011;5409;42.620;23.316;2022-10-31T08:51:58;21.67;;;10.27;;
10715;SDS011;5409;42.620;23.316;2022-10-31T08:54:28;18.70;;;10.02;;
10715;SDS011;5409;42.620;23.316;2022-10-31T08:56:54;16.48;;;10.00;;
10715;SDS011;5409;42.620;23.316;2022-10-31T08:59:21;15.77;;;10.68;;
10715;SDS011;5409;42.620;23.316;2022-10-31T09:01:48;16.90;;;10.57;;
10715;SDS011;5409;42.620;23.316;2022-10-31T09:04:15;17.52;;;9.65;;
10715;SDS011;5409;42.620;23.316;2022-10-31T09:06:41;13.80;;;8.77;;
10715;SDS011;5409;42.620;23.316;2022-10-31T09:09:08;22.15;;;9.95;;
10715;SDS011;5409;42.620;23.316;2022-10-31T09:11:36;13.30;;;9.00;;
10715;SDS011;5409;42.620;23.316;2022-10-31T09:14:03;18.52;;;9.00;;
10715;SDS011;5409;42.620;23.316;2022-10-31T09:16:30;12.95;;;7.38;;
10715;SDS011;5409;42.620;23.316;2022-10-31T09:18:56;20.17;;;8.07;;
10715;SDS011;5409;42.620;23.316;2022-10-31T09:21:23;15.18;;;6.75;;
10715;SDS011;5409;42.620;23.316;2022-10-31T09:23:50;9.70;;;6.25;;
10715;SDS011;5409;42.620;23.316;2022-10-31T09:26:18;8.32;;;5.43;;
10715;SDS011;5409;42.620;23.316;2022-10-31T09:28:46;9.25;;;3.60;;
10715;SDS011;5409;42.620;23.316;2022-10-31T09:31:13;8.93;;;3.25;;
10715;SDS011;5409;42.620;23.316;2022-10-31T09:33:40;5.90;;;2.30;;
10715;SDS011;5409;42.620;23.316;2022-10-31T09:36:07;5.00;;;2.22;;
10715;SDS011;5409;42.620;23.316;2022-10-31T09:38:34;3.38;;;1.85;;
10715;SDS011;5409;42.620;23.316;2022-10-31T09:41:01;5.47;;;2.60;;
10715;SDS011;5409;42.620;23.316;2022-10-31T09:43:34;5.10;;;2.90;;
10715;SDS011;5409;42.620;23.316;2022-10-31T09:46:12;10.45;;;2.78;;
10715;SDS011;5409;42.620;23.316;2022-10-31T09:48:48;4.85;;;1.83;;
10715;SDS011;5409;42.620;23.316;2022-10-31T09:51:28;4.95;;;1.80;;
10715;SDS011;5409;42.620;23.316;2022-10-31T09:53:58;6.95;;;2.47;;
10715;SDS011;5409;42.620;23.316;2022-10-31T09:56:30;4.22;;;2.00;;
10715;SDS011;5409;42.620;23.316;2022-10-31T09:58:59;3.75;;;1.80;;
10715;SDS011;5409;42.620;23.316;2022-10-31T10:01:37;6.00;;;2.13;;
10715;SDS011;5409;42.620;23.316;2022-10-31T10:04:20;5.05;;;1.92;;
10715;SDS011;5409;42.620;23.316;2022-10-31T10:06:57;4.72;;;1.77;;
10715;SDS011;5409;42.620;23.316;2022-10-31T10:09:26;7.35;;;2.25;;
10715;SDS011;5409;42.620;23.316;2022-10-31T10:11:55;4.85;;;1.80;;
10715;SDS011;5409;42.620;23.316;2022-10-31T10:17:43;18.23;;;3.10;;
10715;SDS011;5409;42.620;23.316;2022-10-31T10:20:27;9.55;;;1.77;;
10715;SDS011;5409;42.620;23.316;2022-10-31T10:23:03;9.43;;;2.58;;
10715;SDS011;5409;42.620;23.316;2022-10-31T10:25:40;4.63;;;1.70;;
10715;SDS011;5409;42.620;23.316;2022-10-31T10:28:13;4.55;;;1.85;;
10715;SDS011;5409;42.620;23.316;2022-10-31T10:30:46;5.95;;;2.03;;
10715;SDS011;5409;42.620;23.316;2022-10-31T10:33:20;4.93;;;2.55;;
10715;SDS011;5409;42.620;23.316;2022-10-31T10:35:50;5.95;;;2.10;;
10715;SDS011;5409;42.620;23.316;2022-10-31T10:38:23;3.58;;;2.30;;
10715;SDS011;5409;42.620;23.316;2022-10-31T10:40:53;10.50;;;2.28;;
10715;SDS011;5409;42.620;23.316;2022-10-31T10:43:22;7.85;;;2.30;;
10715;SDS011;5409;42.620;23.316;2022-10-31T10:45:52;4.43;;;1.70;;
10715;SDS011;5409;42.620;23.316;2022-10-31T10:48:46;7.63;;;2.30;;
10715;SDS011;5409;42.620;23.316;2022-10-31T10:51:22;3.95;;;1.98;;
10715;SDS011;5409;42.620;23.316;2022-10-31T10:53:54;7.05;;;1.90;;
10715;SDS011;5409;42.620;23.316;2022-10-31T10:56:40;2.97;;;1.95;;
10715;SDS011;5409;42.620;23.316;2022-10-31T10:59:18;6.75;;;2.00;;
10715;SDS011;5409;42.620;23.316;2022-10-31T11:01:48;8.88;;;2.17;;
10715;SDS011;5409;42.620;23.316;2022-10-31T11:04:29;6.35;;;1.60;;
10715;SDS011;5409;42.620;23.316;2022-10-31T11:07:02;4.47;;;2.05;;
10715;SDS011;5409;42.620;23.316;2022-10-31T11:09:30;7.90;;;1.50;;
10715;SDS011;5409;42.620;23.316;2022-10-31T11:11:57;4.72;;;1.50;;
10715;SDS011;5409;42.620;23.316;2022-10-31T11:14:25;5.32;;;1.58;;
10715;SDS011;5409;42.620;23.316;2022-10-31T11:16:54;13.05;;;2.65;;
10715;SDS011;5409;42.620;23.316;2022-10-31T11:19:34;8.25;;;2.00;;
10715;SDS011;5409;42.620;23.316;2022-10-31T11:22:05;8.88;;;2.38;;
10715;SDS011;5409;42.620;23.316;2022-10-31T11:24:36;5.10;;;2.00;;
10715;SDS011;5409;42.620;23.316;2022-10-31T11:27:11;8.48;;;1.92;;
10715;SDS011;5409;42.620;23.316;2022-10-31T11:29:40;4.88;;;1.75;;
10715;SDS011;5409;42.620;23.316;2022-10-31T11:32:08;5.80;;;1.92;;
10715;SDS011;5409;42.620;23.316;2022-10-31T11:34:45;4.80;;;1.55;;
10715;SDS011;5409;42.620;23.316;2022-10-31T11:37:17;2.42;;;1.50;;
10715;SDS011;5409;42.620;23.316;2022-10-31T11:39:48;5.38;;;1.92;;
10715;SDS011;5409;42.620;23.316;2022-10-31T11:42:19;4.18;;;1.83;;
10715;SDS011;5409;42.620;23.316;2022-10-31T11:44:48;3.92;;;1.73;;
10715;SDS011;5409;42.620;23.316;2022-10-31T11:47:17;6.03;;;1.95;;
10715;SDS011;5409;42.620;23.316;2022-10-31T11:49:52;4.97;;;1.80;;
10715;SDS011;5409;42.620;23.316;2022-10-31T11:52:20;7.18;;;1.90;;
10715;SDS011;5409;42.620;23.316;2022-10-31T11:54:50;7.68;;;2.10;;
10715;SDS011;5409;42.620;23.316;2022-10-31T11:57:24;4.05;;;1.83;;
10715;SDS011;5409;42.620;23.316;2022-10-31T11:59:52;4.13;;;1.85;;
10715;SDS011;5409;42.620;23.316;2022-10-31T12:02:21;4.40;;;2.10;;
10715;SDS011;5409;42.620;23.316;2022-10-31T12:04:50;4.68;;;1.80;;
10715;SDS011;5409;42.620;23.316;2022-10-31T12:07:23;5.72;;;2.08;;
10715;SDS011;5409;42.620;23.316;2022-10-31T12:09:50;4.63;;;2.22;;
10715;SDS011;5409;42.620;23.316;2022-10-31T12:12:26;3.17;;;1.83;;
10715;SDS011;5409;42.620;23.316;2022-10-31T12:15:11;5.03;;;2.45;;
10715;SDS011;5409;42.620;23.316;2022-10-31T12:17:49;8.20;;;2.55;;
10715;SDS011;5409;42.620;23.316;2022-10-31T12:20:26;5.10;;;2.60;;
10715;SDS011;5409;42.620;23.316;2022-10-31T12:23:04;4.53;;;2.13;;
10715;SDS011;5409;42.620;23.316;2022-10-31T12:25:38;5.68;;;2.60;;
10715;SDS011;5409;42.620;23.316;2022-10-31T12:28:22;9.02;;;2.35;;
10715;SDS011;5409;42.620;23.316;2022-10-31T12:31:08;6.30;;;2.75;;
10715;SDS011;5409;42.620;23.316;2022-10-31T12:33:47;5.80;;;2.28;;
10715;SDS011;5409;42.620;23.316;2022-10-31T12:39:23;4.97;;;2.30;;
10715;SDS011;5409;42.620;23.316;2022-10-31T12:41:56;7.30;;;2.88;;
10715;SDS011;5409;42.620;23.316;2022-10-31T12:47:32;4.43;;;2.13;;
10715;SDS011;5409;42.620;23.316;2022-10-31T12:50:20;5.10;;;2.15;;
10715;SDS011;5409;42.620;23.316;2022-10-31T12:53:03;7.63;;;2.97;;
10715;SDS011;5409;42.620;23.316;2022-10-31T12:55:45;6.63;;;2.28;;
10715;SDS011;5409;42.620;23.316;2022-10-31T12:58:23;5.15;;;2.33;;
10715;SDS011;5409;42.620;23.316;2022-10-31T13:01:04;9.00;;;2.85;;
10715;SDS011;5409;42.620;23.316;2022-10-31T13:03:37;6.43;;;2.40;;
10715;SDS011;5409;42.620;23.316;2022-10-31T13:06:12;5.43;;;2.40;;
10715;SDS011;5409;42.620;23.316;2022-10-31T13:08:45;9.95;;;2.90;;
10715;SDS011;5409;42.620;23.316;2022-10-31T13:11:16;9.43;;;2.92;;
10715;SDS011;5409;42.620;23.316;2022-10-31T13:13:49;6.85;;;2.70;;
10715;SDS011;5409;42.620;23.316;2022-10-31T13:16:22;5.97;;;2.20;;
10715;SDS011;5409;42.620;23.316;2022-10-31T13:18:54;5.43;;;2.58;;
10715;SDS011;5409;42.620;23.316;2022-10-31T13:21:25;5.10;;;2.55;;
10715;SDS011;5409;42.620;23.316;2022-10-31T13:23:57;6.13;;;3.00;;
10715;SDS011;5409;42.620;23.316;2022-10-31T13:26:31;5.85;;;2.35;;
10715;SDS011;5409;42.620;23.316;2022-10-31T13:29:05;10.60;;;2.47;;
10715;SDS011;5409;42.620;23.316;2022-10-31T13:31:39;5.15;;;2.47;;
10715;SDS011;5409;42.620;23.316;2022-10-31T13:34:09;10.57;;;2.83;;
10715;SDS011;5409;42.620;23.316;2022-10-31T13:36:45;5.75;;;2.33;;
10715;SDS011;5409;42.620;23.316;2022-10-31T13:39:23;5.55;;;3.40;;
10715;SDS011;5409;42.620;23.316;2022-10-31T13:41:59;7.57;;;2.58;;
10715;SDS011;5409;42.620;23.316;2022-10-31T13:44:34;7.55;;;3.03;;
10715;SDS011;5409;42.620;23.316;2022-10-31T13:47:02;5.55;;;3.03;;
10715;SDS011;5409;42.620;23.316;2022-10-31T13:49:37;3.28;;;2.63;;
10715;SDS011;5409;42.620;23.316;2022-10-31T13:52:07;5.25;;;3.13;;
10715;SDS011;5409;42.620;23.316;2022-10-31T13:54:42;8.23;;;3.08;;
10715;SDS011;5409;42.620;23.316;2022-10-31T13:57:15;4.93;;;2.92;;
10715;SDS011;5409;42.620;23.316;2022-10-31T13:59:48;5.30;;;2.40;;
10715;SDS011;5409;42.620;23.316;2022-10-31T14:02:18;5.32;;;2.55;;
10715;SDS011;5409;42.620;23.316;2022-10-31T14:04:51;6.55;;;2.72;;
10715;SDS011;5409;42.620;23.316;2022-10-31T14:07:22;9.65;;;2.80;;
10715;SDS011;5409;42.620;23.316;2022-10-31T14:09:53;4.78;;;2.53;;
10715;SDS011;5409;42.620;23.316;2022-10-31T14:12:24;5.82;;;2.60;;
10715;SDS011;5409;42.620;23.316;2022-10-31T14:14:57;6.05;;;2.63;;
10715;SDS011;5409;42.620;23.316;2022-10-31T14:17:31;6.50;;;2.83;;
10715;SDS011;5409;42.620;23.316;2022-10-31T14:22:52;7.22;;;3.38;;
10715;SDS011;5409;42.620;23.316;2022-10-31T14:25:26;6.90;;;2.78;;
10715;SDS011;5409;42.620;23.316;2022-10-31T14:27:55;6.80;;;2.80;;
10715;SDS011;5409;42.620;23.316;2022-10-31T14:30:23;7.85;;;3.08;;
10715;SDS011;5409;42.620;23.316;2022-10-31T14:32:53;6.82;;;2.58;;
10715;SDS011;5409;42.620;23.316;2022-10-31T14:35:24;8.32;;;2.92;;
10715;SDS011;5409;42.620;23.316;2022-10-31T14:40:52;7.90;;;2.92;;
10715;SDS011;5409;42.620;23.316;2022-10-31T14:43:39;6.68;;;2.28;;
10715;SDS011;5409;42.620;23.316;2022-10-31T14:46:16;8.20;;;3.33;;
10715;SDS011;5409;42.620;23.316;2022-10-31T14:48:55;6.10;;;2.83;;
10715;SDS011;5409;42.620;23.316;2022-10-31T14:51:33;4.30;;;2.38;;
10715;SDS011;5409;42.620;23.316;2022-10-31T14:54:05;11.43;;;2.70;;
10715;SDS011;5409;42.620;23.316;2022-10-31T14:56:35;4.57;;;2.70;;
10715;SDS011;5409;42.620;23.316;2022-10-31T14:59:08;5.45;;;2.63;;
10715;SDS011;5409;42.620;23.316;2022-10-31T15:01:38;5.55;;;2.78;;
10715;SDS011;5409;42.620;23.316;2022-10-31T15:04:07;4.75;;;2.60;;
10715;SDS011;5409;42.620;23.316;2022-10-31T15:06:38;8.25;;;2.55;;
10715;SDS011;5409;42.620;23.316;2022-10-31T15:09:20;6.25;;;2.63;;
10715;SDS011;5409;42.620;23.316;2022-10-31T15:11:50;5.45;;;3.00;;
10715;SDS011;5409;42.620;23.316;2022-10-31T15:14:20;6.38;;;3.20;;
10715;SDS011;5409;42.620;23.316;2022-10-31T15:16:49;8.80;;;3.00;;
10715;SDS011;5409;42.620;23.316;2022-10-31T15:19:16;5.30;;;2.30;;
10715;SDS011;5409;42.620;23.316;2022-10-31T15:21:49;6.57;;;3.35;;